Time;durP1;ratioP1;P1;durP2;ratioP2;P2;SDS_P1;SDS_P2;PMS_P1;PMS_P2;Temp;Humidity;BMP_temperature;BMP_pressure;BME280_temperature;BME280_humidity;BME280_pressure;Samples;Min_cycle;Max_cycle;Signal;HPM_P1;HPM_P2
2024/02/20 00:00:05;;;;;;;1.90;1.30;;;6.60;99.90;;;;;;5013125;28;20060;-72
2024/02/20 00:02:32;;;;;;;2.85;1.10;;;6.60;99.90;;;;;;5001359;28;20026;-72
2024/02/20 00:04:58;;;;;;;1.10;1.10;;;6.50;99.90;;;;;;5005600;28;20089;-72
2024/02/20 00:07:24;;;;;;;2.83;1.10;;;6.50;99.90;;;;;;5009225;28;20131;-72
2024/02/20 00:09:49;;;;;;;0.90;0.77;;;6.50;99.90;;;;;;5005962;28;20102;-72
2024/02/20 00:12:15;;;;;;;1.65;0.85;;;6.50;99.90;;;;;;5011307;28;20044;-71
2024/02/20 00:14:42;;;;;;;1.20;0.70;;;6.60;99.90;;;;;;5015302;28;20029;-73
2024/02/20 00:17:08;;;;;;;2.28;0.75;;;6.50;99.90;;;;;;5009937;28;20038;-72
2024/02/20 00:19:33;;;;;;;1.70;0.98;;;6.60;99.90;;;;;;5010540;28;20473;-72
2024/02/20 00:21:59;;;;;;;1.10;1.10;;;6.50;99.90;;;;;;5013271;28;20045;-73
2024/02/20 00:24:25;;;;;;;2.17;1.20;;;6.60;99.90;;;;;;5008001;28;20037;-73
2024/02/20 00:26:50;;;;;;;2.13;1.10;;;6.60;99.90;;;;;;5019598;28;20463;-73
2024/02/20 00:29:16;;;;;;;2.50;1.30;;;6.60;99.90;;;;;;5010788;28;20015;-73
2024/02/20 00:31:42;;;;;;;2.17;1.27;;;6.60;99.90;;;;;;4994799;28;20074;-72
2024/02/20 00:34:07;;;;;;;2.53;1.60;;;6.60;99.90;;;;;;4992974;28;20037;-73
2024/02/20 00:36:33;;;;;;;1.95;1.35;;;6.70;99.90;;;;;;4972281;28;20635;-73
2024/02/20 00:38:59;;;;;;;2.75;1.48;;;6.70;99.90;;;;;;4990882;28;20077;-73
2024/02/20 00:41:26;;;;;;;2.88;1.50;;;6.70;99.90;;;;;;4992660;28;20703;-73
2024/02/20 00:43:52;;;;;;;1.73;1.63;;;6.70;99.90;;;;;;4993973;28;20565;-73
2024/02/20 00:46:22;;;;;;;2.60;1.60;;;6.80;99.90;;;;;;4987590;28;20058;-73
2024/02/20 00:48:49;;;;;;;4.07;2.13;;;6.70;99.90;;;;;;4988438;28;20344;-73
2024/02/20 00:51:19;;;;;;;2.15;1.80;;;6.70;99.90;;;;;;4990330;28;20414;-72
2024/02/20 00:53:49;;;;;;;2.90;2.00;;;6.70;99.90;;;;;;4989742;28;20562;-72
2024/02/20 00:56:15;;;;;;;4.22;1.80;;;6.70;99.90;;;;;;4990225;28;20336;-74
2024/02/20 00:58:45;;;;;;;4.05;2.20;;;6.70;99.90;;;;;;4992705;28;20079;-74
2024/02/20 01:01:14;;;;;;;3.35;1.90;;;6.60;99.90;;;;;;4998858;28;20034;-75
2024/02/20 01:03:44;;;;;;;2.95;1.75;;;6.60;99.90;;;;;;5009118;28;20026;-73
2024/02/20 01:06:10;;;;;;;2.85;1.80;;;6.60;99.90;;;;;;5013136;28;20025;-74
2024/02/20 01:08:36;;;;;;;4.03;1.70;;;6.60;99.90;;;;;;5012036;28;20026;-74
2024/02/20 01:11:03;;;;;;;2.80;2.20;;;6.60;99.90;;;;;;5014652;28;20120;-74
2024/02/20 01:13:29;;;;;;;4.65;2.22;;;6.50;99.90;;;;;;5014913;28;20025;-73
2024/02/20 01:15:55;;;;;;;4.15;2.22;;;6.50;99.90;;;;;;5016526;28;20065;-74
2024/02/20 01:18:21;;;;;;;3.85;2.63;;;6.50;99.90;;;;;;5020604;28;20037;-73
2024/02/20 01:20:47;;;;;;;4.43;2.60;;;6.50;99.90;;;;;;5024885;28;20108;-74
2024/02/20 01:23:13;;;;;;;2.50;1.98;;;6.50;99.90;;;;;;5022980;28;20080;-74
2024/02/20 01:25:39;;;;;;;3.00;2.00;;;6.50;99.90;;;;;;5020643;28;20441;-73
2024/02/20 01:28:05;;;;;;;3.50;1.95;;;6.50;99.90;;;;;;5018775;28;20109;-73
2024/02/20 01:30:31;;;;;;;2.70;1.90;;;6.50;99.90;;;;;;5026404;28;20034;-74
2024/02/20 01:33:00;;;;;;;2.78;1.88;;;6.50;99.90;;;;;;5041005;28;20046;-74
2024/02/20 01:35:26;;;;;;;3.85;2.00;;;6.50;99.90;;;;;;5041873;28;20041;-74
2024/02/20 01:37:53;;;;;;;3.28;2.05;;;6.50;99.90;;;;;;5041154;28;20516;-74
2024/02/20 01:40:19;;;;;;;2.30;2.10;;;6.50;99.90;;;;;;5040132;28;20021;-74
2024/02/20 01:43:14;;;;;;;3.42;2.20;;;6.50;99.90;;;;;;5023569;28;20358;-74
2024/02/20 01:45:40;;;;;;;2.67;1.77;;;6.50;99.90;;;;;;5016969;28;20084;-74
2024/02/20 01:48:07;;;;;;;2.35;2.15;;;6.50;99.90;;;;;;5037437;28;20033;-75
2024/02/20 01:50:35;;;;;;;2.92;1.98;;;6.50;99.90;;;;;;5042666;28;20026;-75
2024/02/20 01:53:05;;;;;;;4.90;2.17;;;6.50;99.90;;;;;;5025607;28;20037;-74
2024/02/20 01:55:36;;;;;;;2.08;1.90;;;6.50;99.90;;;;;;5040831;28;20079;-74
2024/02/20 01:58:02;;;;;;;2.90;2.03;;;6.60;99.90;;;;;;5044262;28;20104;-75
2024/02/20 02:00:28;;;;;;;3.65;2.20;;;6.60;99.90;;;;;;5040198;28;20096;-74
2024/02/20 02:02:54;;;;;;;3.35;2.35;;;6.60;99.90;;;;;;5034289;28;20124;-74
2024/02/20 02:05:22;;;;;;;3.00;2.50;;;6.50;99.90;;;;;;5010311;28;20108;-74
2024/02/20 02:07:49;;;;;;;2.97;2.03;;;6.50;99.90;;;;;;5036314;28;20108;-76
2024/02/20 02:10:15;;;;;;;2.85;1.88;;;6.50;99.90;;;;;;5047803;28;20037;-77
2024/02/20 02:12:41;;;;;;;3.05;1.95;;;6.50;99.90;;;;;;5038297;28;20441;-77
2024/02/20 02:15:08;;;;;;;2.78;2.15;;;6.50;99.90;;;;;;5042754;28;20037;-75
2024/02/20 02:17:34;;;;;;;2.22;2.03;;;6.50;99.90;;;;;;5051087;28;20037;-75
2024/02/20 02:20:00;;;;;;;2.70;2.15;;;6.50;99.90;;;;;;5041376;28;20507;-76
2024/02/20 02:22:26;;;;;;;4.05;2.03;;;6.60;99.90;;;;;;5049180;28;20033;-76
2024/02/20 02:24:51;;;;;;;4.43;2.13;;;6.60;99.90;;;;;;5015697;28;20038;-77
2024/02/20 02:27:17;;;;;;;2.08;1.80;;;6.60;99.90;;;;;;5017167;28;20029;-76
2024/02/20 02:29:43;;;;;;;3.15;2.22;;;6.60;99.90;;;;;;5046997;28;20353;-76
2024/02/20 02:32:09;;;;;;;1.88;1.73;;;6.60;99.90;;;;;;5047882;28;20064;-76
2024/02/20 02:34:35;;;;;;;2.83;1.92;;;6.60;99.90;;;;;;5050129;28;20044;-76
2024/02/20 02:37:01;;;;;;;3.88;1.90;;;6.60;99.90;;;;;;5037657;28;20029;-74
2024/02/20 02:39:26;;;;;;;2.25;2.05;;;6.50;99.90;;;;;;5036727;28;20025;-73
2024/02/20 02:41:53;;;;;;;2.45;2.03;;;6.60;99.90;;;;;;5036563;28;20030;-74
2024/02/20 02:44:19;;;;;;;2.42;2.00;;;6.50;99.90;;;;;;5033474;28;20086;-73
2024/02/20 02:46:46;;;;;;;2.72;1.88;;;6.60;99.90;;;;;;5037323;28;20138;-73
2024/02/20 02:52:34;;;;;;;3.75;1.80;;;6.60;99.90;;;;;;5041503;28;20071;-74
2024/02/20 02:55:02;;;;;;;1.73;1.63;;;6.60;99.90;;;;;;5040016;28;20025;-76
2024/02/20 02:57:28;;;;;;;2.03;1.83;;;6.60;99.90;;;;;;5043451;28;20040;-74
2024/02/20 02:59:53;;;;;;;1.75;1.65;;;6.60;99.90;;;;;;5039615;28;20064;-73
2024/02/20 03:02:21;;;;;;;2.22;1.27;;;6.60;99.90;;;;;;5031348;28;20061;-73
2024/02/20 03:04:47;;;;;;;4.38;1.85;;;6.60;99.90;;;;;;5031019;28;20017;-74
2024/02/20 03:07:13;;;;;;;1.27;0.90;;;6.50;99.90;;;;;;5030784;28;20040;-75
2024/02/20 03:09:38;;;;;;;3.67;1.67;;;6.60;99.90;;;;;;5035284;28;20056;-73
2024/02/20 03:12:06;;;;;;;1.42;1.30;;;6.50;99.90;;;;;;5027563;28;20089;-73
2024/02/20 03:14:31;;;;;;;3.75;2.25;;;6.50;99.90;;;;;;5035284;28;20123;-75
2024/02/20 03:16:57;;;;;;;3.50;2.03;;;6.50;99.90;;;;;;5017374;28;20063;-73
2024/02/20 03:19:23;;;;;;;2.20;1.65;;;6.50;99.90;;;;;;5037668;28;20025;-72
2024/02/20 03:21:48;;;;;;;1.10;1.05;;;6.50;99.90;;;;;;5028413;28;20073;-73
2024/02/20 03:24:14;;;;;;;2.08;1.67;;;6.40;99.90;;;;;;5032653;28;20457;-74
2024/02/20 03:26:40;;;;;;;1.92;1.30;;;6.40;99.90;;;;;;5031796;28;20401;-72
2024/02/20 03:29:08;;;;;;;3.30;1.38;;;6.40;99.90;;;;;;5041547;28;20040;-72
2024/02/20 03:31:34;;;;;;;1.10;1.10;;;6.40;99.90;;;;;;5035163;28;20069;-72
2024/02/20 03:34:01;;;;;;;1.00;1.00;;;6.40;99.90;;;;;;5033558;28;20071;-72
2024/02/20 03:36:27;;;;;;;2.08;1.48;;;6.40;99.90;;;;;;5028790;28;20081;-72
2024/02/20 03:38:53;;;;;;;2.28;1.95;;;6.40;99.90;;;;;;5028943;28;20033;-73
2024/02/20 03:41:18;;;;;;;2.33;1.25;;;6.40;99.90;;;;;;5032002;28;20681;-73
2024/02/20 03:43:44;;;;;;;1.30;1.20;;;6.40;99.90;;;;;;5035134;28;20044;-73
2024/02/20 03:46:11;;;;;;;1.50;0.98;;;6.40;99.90;;;;;;5033765;28;20029;-74
2024/02/20 03:48:37;;;;;;;1.10;1.10;;;6.40;99.90;;;;;;5038415;28;20051;-75
2024/02/20 03:51:04;;;;;;;1.25;1.20;;;6.30;99.90;;;;;;5044499;28;20040;-75
2024/02/20 03:53:30;;;;;;;2.95;1.45;;;6.30;99.90;;;;;;5038436;28;20705;-74
2024/02/20 03:55:56;;;;;;;0.60;0.60;;;6.30;99.90;;;;;;5047869;28;20081;-75
2024/02/20 03:58:22;;;;;;;3.25;1.58;;;6.30;99.90;;;;;;5040283;28;20036;-75
2024/02/20 04:00:47;;;;;;;1.17;1.17;;;6.30;99.90;;;;;;5035261;28;20029;-74
2024/02/20 04:03:16;;;;;;;2.30;2.08;;;6.30;99.90;;;;;;5035654;28;20040;-76
2024/02/20 04:05:41;;;;;;;2.00;1.27;;;6.30;99.90;;;;;;5038272;28;20037;-75
2024/02/20 04:08:07;;;;;;;3.03;2.50;;;6.40;99.90;;;;;;5041303;28;20029;-75
2024/02/20 04:10:33;;;;;;;2.42;1.48;;;6.40;99.90;;;;;;5039347;28;20022;-78
2024/02/20 04:12:59;;;;;;;1.85;1.70;;;6.40;99.90;;;;;;5032007;28;20037;-75
2024/02/20 04:15:24;;;;;;;3.85;1.98;;;6.40;99.90;;;;;;5033294;28;20044;-75
2024/02/20 04:17:50;;;;;;;1.17;1.08;;;6.40;99.90;;;;;;5033444;28;20056;-75
2024/02/20 04:20:16;;;;;;;1.48;1.38;;;6.40;99.90;;;;;;5018082;28;20516;-75
2024/02/20 04:22:41;;;;;;;1.50;1.30;;;6.40;99.90;;;;;;5037706;28;20036;-75
2024/02/20 04:25:08;;;;;;;1.70;1.15;;;6.40;99.90;;;;;;5037625;28;20036;-76
2024/02/20 04:27:34;;;;;;;1.38;1.20;;;6.40;99.90;;;;;;5040303;28;20068;-74
2024/02/20 04:30:00;;;;;;;3.22;2.00;;;6.40;99.90;;;;;;5031368;28;20021;-74
2024/02/20 04:32:26;;;;;;;1.33;1.27;;;6.40;99.90;;;;;;5033267;28;20042;-74
2024/02/20 04:34:52;;;;;;;2.25;1.67;;;6.40;99.90;;;;;;5027841;28;20097;-73
2024/02/20 04:37:18;;;;;;;1.90;1.67;;;6.40;99.90;;;;;;5033871;28;20121;-73
2024/02/20 04:39:45;;;;;;;0.98;0.93;;;6.30;99.90;;;;;;5031444;28;20371;-73
2024/02/20 04:42:11;;;;;;;2.42;1.33;;;6.30;99.90;;;;;;5030130;28;20041;-74
2024/02/20 04:44:37;;;;;;;1.95;1.75;;;6.30;99.90;;;;;;5030841;28;20777;-75
2024/02/20 04:47:04;;;;;;;1.38;1.30;;;6.30;99.90;;;;;;5030863;28;20041;-74
2024/02/20 04:49:29;;;;;;;0.95;0.68;;;6.30;99.90;;;;;;5030201;28;20041;-74
2024/02/20 04:51:55;;;;;;;1.42;1.33;;;6.30;99.90;;;;;;5030288;28;20041;-74
2024/02/20 04:54:21;;;;;;;3.60;2.40;;;6.30;99.90;;;;;;5038946;28;20566;-73
2024/02/20 04:56:46;;;;;;;2.95;1.98;;;6.30;99.90;;;;;;5045533;28;20041;-78
2024/02/20 04:59:12;;;;;;;2.30;1.80;;;6.30;99.90;;;;;;5043524;28;20080;-78
2024/02/20 05:01:38;;;;;;;1.70;1.60;;;6.30;99.90;;;;;;5030872;28;20030;-81
2024/02/20 05:04:04;;;;;;;1.73;1.63;;;6.30;99.90;;;;;;5037175;28;20089;-84
2024/02/20 05:06:30;;;;;;;1.70;1.60;;;6.30;99.90;;;;;;5034023;28;20119;-78
2024/02/20 05:08:56;;;;;;;4.65;2.25;;;6.30;99.90;;;;;;5034608;28;20030;-79
2024/02/20 05:11:21;;;;;;;1.48;1.38;;;6.30;99.90;;;;;;5026060;28;20113;-78
2024/02/20 05:13:47;;;;;;;1.60;1.40;;;6.30;99.90;;;;;;5022953;28;20056;-77
2024/02/20 05:16:12;;;;;;;2.55;2.03;;;6.30;99.90;;;;;;5030867;28;20081;-77
2024/02/20 05:18:38;;;;;;;2.53;2.08;;;6.30;99.90;;;;;;5031898;28;20057;-78
2024/02/20 05:21:06;;;;;;;2.85;1.90;;;6.30;99.90;;;;;;5035936;28;20089;-78
2024/02/20 05:23:32;;;;;;;5.28;2.50;;;6.30;99.90;;;;;;5040806;28;20026;-77
2024/02/20 05:25:58;;;;;;;2.80;1.80;;;6.30;99.90;;;;;;5037273;22;20054;-33
2024/02/20 05:28:25;;;;;;;1.20;1.20;;;6.30;99.90;;;;;;5007379;28;20029;-33
2024/02/20 05:30:51;;;;;;;1.80;1.42;;;6.30;99.90;;;;;;5010376;28;20033;-34
2024/02/20 05:33:17;;;;;;;3.90;2.10;;;6.30;99.90;;;;;;5004229;28;20017;-35
2024/02/20 05:35:44;;;;;;;2.90;2.28;;;6.30;99.90;;;;;;5007840;28;20036;-40
2024/02/20 05:38:11;;;;;;;3.08;2.22;;;6.30;99.90;;;;;;5006540;28;20060;-32
2024/02/20 05:40:37;;;;;;;1.95;1.85;;;6.30;99.90;;;;;;5010028;28;20600;-32
2024/02/20 05:43:03;;;;;;;2.00;1.30;;;6.20;99.90;;;;;;5002953;28;20057;-35
2024/02/20 05:45:30;;;;;;;1.23;1.20;;;6.10;99.90;;;;;;5013724;28;20022;-40
2024/02/20 05:47:56;;;;;;;2.67;2.30;;;6.10;99.90;;;;;;5024992;28;20114;-32
2024/02/20 05:50:23;;;;;;;2.53;1.90;;;6.10;99.90;;;;;;5008811;28;20022;-33
2024/02/20 05:52:48;;;;;;;1.10;1.00;;;6.00;99.90;;;;;;5006302;28;20061;-34
2024/02/20 05:55:14;;;;;;;5.03;1.90;;;6.00;99.90;;;;;;5005653;28;20510;-34
2024/02/20 05:57:40;;;;;;;3.38;1.95;;;6.00;99.90;;;;;;5021492;28;20057;-34
2024/02/20 06:00:07;;;;;;;3.03;1.75;;;6.00;99.90;;;;;;5005670;28;20548;-35
2024/02/20 06:02:32;;;;;;;2.33;1.67;;;6.00;99.90;;;;;;5023298;28;20739;-34
2024/02/20 06:04:59;;;;;;;2.70;1.80;;;6.00;99.90;;;;;;4986739;28;20116;-32
2024/02/20 06:07:25;;;;;;;5.03;1.17;;;6.00;99.90;;;;;;5009181;28;20037;-34
2024/02/20 06:09:51;;;;;;;2.15;1.67;;;6.00;99.90;;;;;;5005674;28;20071;-33
2024/02/20 06:12:20;;;;;;;1.75;1.48;;;6.00;99.90;;;;;;5003927;28;20510;-34
2024/02/20 06:14:46;;;;;;;2.90;2.47;;;6.00;99.90;;;;;;5022673;28;20041;-29
2024/02/20 06:17:12;;;;;;;1.75;1.65;;;6.00;99.90;;;;;;5008660;28;20045;-31
2024/02/20 06:19:38;;;;;;;1.38;1.20;;;6.00;99.90;;;;;;5005751;28;20068;-40
2024/02/20 06:22:04;;;;;;;3.47;2.05;;;6.00;99.90;;;;;;5007476;28;20493;-34
2024/02/20 06:24:29;;;;;;;1.95;1.77;;;6.00;99.90;;;;;;5023943;28;20104;-35
2024/02/20 06:26:55;;;;;;;2.50;1.95;;;5.90;99.90;;;;;;5007070;28;20120;-33
2024/02/20 06:29:21;;;;;;;2.13;1.63;;;5.90;99.90;;;;;;5007037;28;20032;-31
2024/02/20 06:31:51;;;;;;;1.20;1.20;;;5.90;99.90;;;;;;5006740;28;20402;-33
2024/02/20 06:34:17;;;;;;;3.25;1.77;;;5.90;99.90;;;;;;5024366;28;20057;-34
2024/02/20 06:36:43;;;;;;;6.95;2.10;;;5.80;99.90;;;;;;5023480;28;20025;-31
2024/02/20 06:39:09;;;;;;;2.38;2.22;;;5.90;99.90;;;;;;5021131;28;20829;-36
2024/02/20 06:41:35;;;;;;;2.08;1.65;;;5.90;99.90;;;;;;5020601;28;20049;-40
2024/02/20 06:44:01;;;;;;;2.60;1.98;;;5.90;99.90;;;;;;5021720;28;20596;-40
2024/02/20 06:46:26;;;;;;;0.82;0.82;;;5.90;99.90;;;;;;5022009;28;20491;-39
2024/02/20 06:48:52;;;;;;;5.40;1.73;;;5.90;99.90;;;;;;5020453;28;20033;-34
2024/02/20 06:51:23;;;;;;;2.50;2.08;;;5.80;99.90;;;;;;5022664;28;20036;-40
2024/02/20 06:53:49;;;;;;;3.25;1.67;;;5.90;99.90;;;;;;5023376;28;20025;-40
2024/02/20 06:56:14;;;;;;;1.77;1.67;;;5.80;99.90;;;;;;5023673;28;20029;-41
2024/02/20 06:58:40;;;;;;;3.88;3.58;;;5.80;99.90;;;;;;5025936;28;20017;-42
2024/02/20 07:01:06;;;;;;;2.15;1.33;;;5.80;99.90;;;;;;5022559;28;20506;-37
2024/02/20 07:03:32;;;;;;;2.83;1.60;;;5.80;99.90;;;;;;5004052;28;20611;-42
2024/02/20 07:05:58;;;;;;;1.55;1.45;;;5.80;99.90;;;;;;5019300;28;20652;-37
2024/02/20 07:08:24;;;;;;;3.42;1.35;;;5.80;99.90;;;;;;5028878;28;20025;-40
2024/02/20 07:10:50;;;;;;;2.08;1.48;;;5.80;99.90;;;;;;5027779;28;20529;-31
2024/02/20 07:13:18;;;;;;;2.38;1.10;;;5.80;99.90;;;;;;5010788;28;20116;-31
2024/02/20 07:15:44;;;;;;;;;;;5.80;99.90;;;;;;5022343;28;20102;-33
2024/02/20 07:18:10;;;;;;;2.13;1.65;;;5.70;99.90;;;;;;5023126;28;19999;-33
2024/02/20 07:20:36;;;;;;;3.40;1.33;;;5.70;99.90;;;;;;5029549;28;20025;-32
2024/02/20 07:23:02;;;;;;;2.83;1.27;;;5.70;99.90;;;;;;5025292;28;20042;-31
2024/02/20 07:25:28;;;;;;;4.90;2.22;;;5.70;99.90;;;;;;5019727;28;20398;-31
2024/02/20 07:27:54;;;;;;;5.57;1.45;;;5.70;99.90;;;;;;5029268;28;20026;-31
2024/02/20 07:30:20;;;;;;;1.60;1.50;;;5.70;99.90;;;;;;5008815;28;20034;-31
2024/02/20 07:32:45;;;;;;;5.80;2.38;;;5.70;99.90;;;;;;5026161;28;20036;-31
2024/02/20 07:35:12;;;;;;;4.95;1.95;;;5.70;99.90;;;;;;4999187;28;20038;-35
2024/02/20 07:37:39;;;;;;;1.95;1.83;;;5.70;99.90;;;;;;5027317;28;20033;-31
2024/02/20 07:40:06;;;;;;;5.90;2.15;;;5.70;99.90;;;;;;5023930;28;20061;-37
2024/02/20 07:42:31;;;;;;;1.92;1.63;;;5.70;99.90;;;;;;5027510;28;20359;-31
2024/02/20 07:44:57;;;;;;;4.07;2.03;;;5.70;99.90;;;;;;5024477;28;20030;-33
2024/02/20 07:47:23;;;;;;;3.05;1.58;;;5.80;99.90;;;;;;5029381;28;20082;-33
2024/02/20 07:49:50;;;;;;;4.65;1.95;;;5.80;99.90;;;;;;5006168;28;20026;-31
2024/02/20 07:52:16;;;;;;;3.53;1.35;;;5.80;99.90;;;;;;5025620;28;20136;-32
2024/02/20 07:54:41;;;;;;;3.20;1.88;;;5.80;99.90;;;;;;5024874;28;20100;-31
2024/02/20 07:57:07;;;;;;;7.68;2.55;;;5.80;99.90;;;;;;5019646;28;20025;-34
2024/02/20 07:59:32;;;;;;;7.35;1.98;;;5.70;99.90;;;;;;5022420;28;20029;-33
2024/02/20 08:02:02;;;;;;;4.07;1.70;;;5.70;99.90;;;;;;5020736;28;20510;-34
2024/02/20 08:04:28;;;;;;;2.22;1.05;;;5.80;99.90;;;;;;5029376;28;20047;-31
2024/02/20 08:06:54;;;;;;;4.03;1.92;;;6.00;99.90;;;;;;5021203;28;20033;-35
2024/02/20 08:09:20;;;;;;;2.75;1.35;;;6.10;99.90;;;;;;5020380;28;20033;-32
2024/02/20 08:11:45;;;;;;;2.38;1.13;;;6.10;99.90;;;;;;5023460;28;20587;-33
2024/02/20 08:14:12;;;;;;;7.30;2.35;;;6.10;99.90;;;;;;5006361;28;20076;-33
2024/02/20 08:16:39;;;;;;;5.18;1.48;;;6.20;99.90;;;;;;5020943;28;20116;-33
2024/02/20 08:19:04;;;;;;;5.05;2.08;;;6.10;99.90;;;;;;5028445;28;20393;-32
2024/02/20 08:21:30;;;;;;;1.35;1.25;;;6.10;99.90;;;;;;5019492;28;20108;-31
2024/02/20 08:23:58;;;;;;;2.28;1.75;;;6.00;99.90;;;;;;5023113;28;20113;-34
2024/02/20 08:26:24;;;;;;;3.60;2.50;;;6.00;99.90;;;;;;5023686;28;20067;-33
2024/02/20 08:28:50;;;;;;;4.35;1.92;;;6.00;99.90;;;;;;5025555;28;20124;-33
2024/02/20 08:31:18;;;;;;;2.45;1.67;;;6.00;99.90;;;;;;5019207;28;20133;-32
2024/02/20 08:33:44;;;;;;;3.10;1.77;;;5.90;99.90;;;;;;5021111;28;20037;-32
2024/02/20 08:36:10;;;;;;;4.70;2.15;;;6.00;99.90;;;;;;5021196;28;20491;-35
2024/02/20 08:38:36;;;;;;;0.93;0.93;;;6.10;99.90;;;;;;5024565;28;20032;-35
2024/02/20 08:41:02;;;;;;;4.63;2.25;;;6.10;99.90;;;;;;5022919;28;20134;-33
2024/02/20 08:43:28;;;;;;;1.10;1.10;;;6.10;99.90;;;;;;5020068;28;20148;-33
2024/02/20 08:45:53;;;;;;;1.35;1.25;;;6.10;99.90;;;;;;5023116;28;20084;-36
2024/02/20 08:48:19;;;;;;;3.83;1.55;;;6.10;99.90;;;;;;5021120;28;20029;-32
2024/02/20 08:50:45;;;;;;;2.13;1.50;;;6.10;99.90;;;;;;5021858;28;20029;-31
2024/02/20 08:53:10;;;;;;;7.57;3.30;;;6.20;99.90;;;;;;5023433;28;20067;-33
2024/02/20 08:55:39;;;;;;;2.95;1.80;;;6.10;99.90;;;;;;5018653;28;20026;-32
2024/02/20 08:58:06;;;;;;;5.30;1.98;;;6.20;99.90;;;;;;5027838;28;20555;-32
2024/02/20 09:00:32;;;;;;;1.77;1.65;;;6.30;99.90;;;;;;5022625;28;20018;-37
2024/02/20 09:02:59;;;;;;;0.88;0.77;;;6.30;99.90;;;;;;5019648;28;20036;-39
2024/02/20 09:05:25;;;;;;;9.07;2.85;;;6.40;99.90;;;;;;5021478;28;20021;-42
2024/02/20 09:07:50;;;;;;;3.78;2.22;;;6.50;99.90;;;;;;5022994;28;20580;-39
2024/02/20 09:10:20;;;;;;;3.85;2.25;;;6.40;99.90;;;;;;4993949;28;20576;-40
2024/02/20 09:12:45;;;;;;;6.43;1.88;;;6.40;99.90;;;;;;5022307;28;20506;-39
2024/02/20 09:15:11;;;;;;;10.38;3.10;;;6.50;99.90;;;;;;4995956;28;20170;-40
2024/02/20 09:17:38;;;;;;;10.45;2.08;;;6.60;99.90;;;;;;5018321;28;20029;-40
2024/02/20 09:20:06;;;;;;;2.28;1.48;;;6.60;99.90;;;;;;5006471;28;20053;-38
2024/02/20 09:22:33;;;;;;;1.95;1.85;;;6.60;99.90;;;;;;5006579;28;20025;-40
2024/02/20 09:24:59;;;;;;;6.18;1.50;;;6.60;99.90;;;;;;5026523;28;20056;-38
2024/02/20 09:27:24;;;;;;;5.45;1.98;;;6.70;99.90;;;;;;5021320;28;20022;-42
2024/02/20 09:29:50;;;;;;;6.60;2.70;;;6.70;99.90;;;;;;5021088;28;20040;-41
2024/02/20 09:32:16;;;;;;;4.20;2.33;;;6.70;99.90;;;;;;5016685;28;20548;-40
2024/02/20 09:34:43;;;;;;;6.15;2.10;;;6.80;99.90;;;;;;5024257;28;20044;-39
2024/02/20 09:37:10;;;;;;;7.40;3.05;;;6.80;99.90;;;;;;5018209;28;20197;-39
2024/02/20 09:39:36;;;;;;;5.72;1.35;;;6.90;99.90;;;;;;5023382;28;20028;-40
2024/02/20 09:42:08;;;;;;;8.80;2.25;;;7.00;99.90;;;;;;5005160;28;20029;-38
2024/02/20 09:44:36;;;;;;;2.40;1.73;;;6.90;99.90;;;;;;5019469;28;20328;-40
2024/02/20 09:47:02;;;;;;;4.35;2.25;;;6.90;99.90;;;;;;5022982;28;20018;-40
2024/02/20 09:49:29;;;;;;;4.60;2.83;;;6.90;99.90;;;;;;5028994;28;20042;-39
2024/02/20 09:51:57;;;;;;;2.47;1.48;;;6.90;99.90;;;;;;5022953;28;20285;-37
2024/02/20 09:54:25;;;;;;;3.05;2.13;;;6.80;99.90;;;;;;5025348;28;20072;-39
2024/02/20 09:56:54;;;;;;;4.70;1.83;;;6.70;99.90;;;;;;5021372;28;20038;-40
2024/02/20 09:59:20;;;;;;;3.92;1.65;;;6.70;99.90;;;;;;5011960;28;20036;-40
2024/02/20 10:01:47;;;;;;;5.32;2.22;;;7.00;99.90;;;;;;5026574;28;20395;-39
2024/02/20 10:04:14;;;;;;;5.75;1.63;;;7.30;99.90;;;;;;5020238;28;20560;-38
2024/02/20 10:06:40;;;;;;;4.00;2.03;;;7.70;99.90;;;;;;5024095;28;20673;-40
2024/02/20 10:09:06;;;;;;;2.45;1.67;;;7.90;99.90;;;;;;5027182;28;20065;-38
2024/02/20 10:11:36;;;;;;;7.82;2.13;;;7.70;99.90;;;;;;5022143;28;20473;-33
2024/02/20 10:14:02;;;;;;;4.53;1.48;;;7.60;99.90;;;;;;5023097;28;20053;-32
2024/02/20 10:16:28;;;;;;;3.92;2.38;;;7.60;99.90;;;;;;4998511;28;20033;-34
2024/02/20 10:19:04;;;;;;;9.93;2.28;;;7.30;99.90;;;;;;5024499;28;20040;-35
2024/02/20 10:21:30;;;;;;;6.78;2.90;;;7.10;99.90;;;;;;5022494;28;20033;-32
2024/02/20 10:24:15;;;;;;;4.70;2.08;;;7.00;99.90;;;;;;5022885;28;20496;-33
2024/02/20 10:26:44;;;;;;;3.53;2.00;;;7.00;99.90;;;;;;5021648;28;20502;-32
2024/02/20 10:29:10;;;;;;;8.95;3.25;;;6.90;99.90;;;;;;5026859;28;20512;-37
2024/02/20 10:31:36;;;;;;;4.18;2.45;;;6.80;99.90;;;;;;5025120;28;20411;-44
2024/02/20 10:34:02;;;;;;;8.38;2.15;;;6.80;99.90;;;;;;5020031;28;20486;-36
2024/02/20 10:36:28;;;;;;;5.53;2.55;;;6.80;99.90;;;;;;5020665;28;20091;-35
2024/02/20 10:39:10;;;;;;;6.00;1.85;;;6.40;99.90;;;;;;5029562;28;20032;-36
2024/02/20 10:41:35;;;;;;;6.00;2.20;;;6.40;99.90;;;;;;5025297;28;20094;-35
2024/02/20 10:44:03;;;;;;;2.25;1.88;;;6.20;99.90;;;;;;5020143;28;20029;-33
2024/02/20 10:46:38;;;;;;;2.67;2.28;;;6.10;99.90;;;;;;5030630;28;20056;-32
2024/02/20 10:49:30;;;;;;;2.50;1.92;;;6.20;99.90;;;;;;5027568;28;20033;-33
2024/02/20 10:51:57;;;;;;;3.95;1.85;;;6.20;99.90;;;;;;5021235;28;20125;-36
2024/02/20 10:54:25;;;;;;;3.65;1.67;;;6.30;99.90;;;;;;5021671;28;20056;-34
2024/02/20 10:56:53;;;;;;;2.80;1.92;;;6.30;99.90;;;;;;5025699;28;20057;-33
2024/02/20 10:59:21;;;;;;;5.57;2.17;;;6.30;99.90;;;;;;5027232;28;20518;-33
2024/02/20 11:01:46;;;;;;;9.05;1.80;;;6.30;99.90;;;;;;5024232;28;20064;-32
2024/02/20 11:04:12;;;;;;;1.65;1.20;;;6.40;99.90;;;;;;5021557;28;20475;-35
2024/02/20 11:06:38;;;;;;;1.48;1.38;;;6.50;99.90;;;;;;5025545;28;20107;-34
2024/02/20 11:09:09;;;;;;;6.40;1.75;;;6.60;99.90;;;;;;5025881;28;20087;-34
2024/02/20 11:11:35;;;;;;;5.72;1.90;;;6.60;99.90;;;;;;5023124;28;20605;-35
2024/02/20 11:14:02;;;;;;;2.10;1.58;;;6.70;99.90;;;;;;5014734;28;20105;-33
2024/02/20 11:16:35;;;;;;;10.00;2.80;;;7.00;99.90;;;;;;5025707;28;20037;-34
2024/02/20 11:19:03;;;;;;;1.77;1.23;;;7.10;99.90;;;;;;5013173;28;20044;-35
2024/02/20 11:21:30;;;;;;;9.03;1.90;;;7.20;99.90;;;;;;5022763;28;20249;-41
2024/02/20 11:23:56;;;;;;;3.88;2.05;;;7.40;99.90;;;;;;5019577;28;20048;-36
2024/02/20 11:26:32;;;;;;;3.60;1.63;;;7.50;99.90;;;;;;5022948;28;20478;-33
2024/02/20 11:28:58;;;;;;;4.93;2.75;;;7.60;99.90;;;;;;5023050;28;20084;-33
2024/02/20 11:31:28;;;;;;;5.53;2.20;;;7.60;99.90;;;;;;5021592;28;20453;-32
2024/02/20 11:33:56;;;;;;;3.25;2.30;;;7.60;99.90;;;;;;4986075;28;20038;-33
2024/02/20 11:36:22;;;;;;;4.75;2.58;;;7.70;99.90;;;;;;5021801;28;20070;-31
2024/02/20 11:39:02;;;;;;;4.70;2.15;;;7.80;99.90;;;;;;5030666;28;20029;-31
2024/02/20 11:41:29;;;;;;;7.60;2.33;;;7.90;99.90;;;;;;5027683;28;20028;-31
2024/02/20 11:44:04;;;;;;;1.98;1.30;;;7.60;99.90;;;;;;5013828;28;20045;-34
2024/02/20 11:46:31;;;;;;;4.28;1.90;;;7.50;99.90;;;;;;5026062;28;20270;-31
2024/02/20 11:48:57;;;;;;;1.45;1.35;;;7.50;99.90;;;;;;5023812;28;20048;-34
2024/02/20 11:51:25;;;;;;;4.03;1.40;;;7.30;99.90;;;;;;4992478;28;20160;-32
2024/02/20 11:54:01;;;;;;;2.53;1.83;;;7.40;99.90;;;;;;5023179;28;20398;-33
2024/02/20 11:56:28;;;;;;;6.22;2.03;;;7.40;99.90;;;;;;5006661;28;20095;-33
2024/02/20 11:58:55;;;;;;;1.10;1.10;;;7.50;99.90;;;;;;5023227;28;20049;-40
2024/02/20 12:01:21;;;;;;;4.53;2.00;;;7.80;99.90;;;;;;5021507;28;20052;-38
2024/02/20 12:03:47;;;;;;;4.28;1.52;;;7.70;99.90;;;;;;5021476;28;20796;-39
2024/02/20 12:06:12;;;;;;;3.20;1.05;;;7.70;99.90;;;;;;5019877;28;20034;-39
2024/02/20 12:08:42;;;;;;;1.60;1.50;;;8.00;99.90;;;;;;5022328;28;20029;-38
2024/02/20 12:11:16;;;;;;;3.15;1.83;;;8.30;99.90;;;;;;5016952;28;20036;-38
2024/02/20 12:13:42;;;;;;;4.78;1.73;;;8.50;99.90;;;;;;5025723;28;20391;-39
2024/02/20 12:16:26;;;;;;;5.40;2.80;;;8.20;99.90;;;;;;5017346;28;20036;-38
2024/02/20 12:18:53;;;;;;;5.63;1.75;;;7.90;99.90;;;;;;5019588;28;20025;-39
2024/02/20 12:21:26;;;;;;;1.52;1.40;;;7.90;99.90;;;;;;5016883;28;20037;-43
2024/02/20 12:24:00;;;;;;;2.90;1.73;;;8.20;99.90;;;;;;5020926;28;20041;-36
2024/02/20 12:26:27;;;;;;;5.55;1.65;;;8.10;99.90;;;;;;5022638;28;20052;-38
2024/02/20 12:28:54;;;;;;;5.18;2.05;;;8.10;99.90;;;;;;5021547;28;20486;-38
2024/02/20 12:31:28;;;;;;;4.18;1.52;;;8.10;99.90;;;;;;5005456;28;20034;-41
2024/02/20 12:33:55;;;;;;;3.10;1.92;;;8.10;99.90;;;;;;5021180;28;20121;-34
2024/02/20 12:36:20;;;;;;;2.47;1.33;;;8.10;99.90;;;;;;5017561;28;20099;-40
2024/02/20 12:38:47;;;;;;;2.80;1.90;;;8.10;99.90;;;;;;5016232;28;20054;-39
2024/02/20 12:41:12;;;;;;;2.75;1.58;;;8.20;99.90;;;;;;5018814;28;20624;-40
2024/02/20 12:43:39;;;;;;;4.25;1.90;;;8.30;99.90;;;;;;5028812;28;20026;-33
2024/02/20 12:46:07;;;;;;;0.88;0.68;;;8.30;99.90;;;;;;5020936;28;20033;-33
2024/02/20 12:48:34;;;;;;;2.85;2.00;;;8.10;99.90;;;;;;5022012;28;20378;-33
2024/02/20 12:50:59;;;;;;;1.42;1.25;;;8.30;99.90;;;;;;5003855;28;20037;-33
2024/02/20 12:53:25;;;;;;;5.35;1.80;;;8.40;98.70;;;;;;5021623;28;20037;-32
2024/02/20 12:55:51;;;;;;;3.20;1.38;;;8.30;99.90;;;;;;5021399;28;20122;-39
2024/02/20 12:58:16;;;;;;;1.83;1.40;;;8.10;99.90;;;;;;5023206;28;20041;-36